createdAt,value
2023-05-06T00:01:12.751Z,91
2023-05-06T00:04:38.039Z,91
2023-05-06T00:08:04.053Z,92
2023-05-06T00:11:29.261Z,91
2023-05-06T00:14:54.505Z,91
2023-05-06T00:18:19.724Z,91
2023-05-06T00:21:44.965Z,91
2023-05-06T00:25:10.385Z,91
2023-05-06T00:28:35.436Z,91
2023-05-06T00:32:00.799Z,91
2023-05-06T00:35:25.899Z,91
2023-05-06T00:38:51.139Z,91
2023-05-06T00:42:16.385Z,91
2023-05-06T00:45:41.667Z,91
2023-05-06T00:49:06.953Z,91
2023-05-06T00:52:32.099Z,90
2023-05-06T00:55:57.329Z,90
2023-05-06T00:59:22.565Z,90
2023-05-06T01:02:48.311Z,90
2023-05-06T01:06:13.168Z,91
2023-05-06T01:09:38.262Z,91
2023-05-06T01:13:03.551Z,91
2023-05-06T01:16:28.690Z,91
2023-05-06T01:19:53.891Z,91
2023-05-06T01:23:19.194Z,92
2023-05-06T01:26:44.866Z,92
2023-05-06T01:30:10.102Z,93
2023-05-06T01:33:35.332Z,93
2023-05-06T01:37:00.546Z,93
2023-05-06T01:40:25.811Z,94
2023-05-06T01:43:50.985Z,94
2023-05-06T01:47:16.260Z,94
2023-05-06T01:50:41.506Z,94
2023-05-06T01:54:06.735Z,94
2023-05-06T01:57:32.065Z,94
2023-05-06T02:00:57.170Z,94
2023-05-06T02:04:22.408Z,94
2023-05-06T02:07:47.658Z,94
2023-05-06T02:11:12.905Z,94
2023-05-06T02:14:38.361Z,94
2023-05-06T02:18:04.141Z,94
2023-05-06T02:21:29.292Z,94
2023-05-06T02:24:54.526Z,94
2023-05-06T02:28:19.751Z,94
2023-05-06T02:31:45.093Z,94
2023-05-06T02:35:10.350Z,93
2023-05-06T02:38:35.432Z,93
2023-05-06T02:42:00.639Z,93
2023-05-06T02:45:25.861Z,93
2023-05-06T02:48:51.223Z,93
2023-05-06T02:52:16.265Z,93
2023-05-06T02:55:41.490Z,93
2023-05-06T02:59:06.672Z,93
2023-05-06T03:02:31.969Z,93
2023-05-06T03:05:57.133Z,93
2023-05-06T03:09:22.319Z,92
2023-05-06T03:12:47.551Z,92
2023-05-06T03:16:12.765Z,92
2023-05-06T03:19:37.931Z,92
2023-05-06T03:23:03.235Z,93
2023-05-06T03:26:28.341Z,93
2023-05-06T03:29:53.586Z,93
2023-05-06T03:33:18.803Z,93
2023-05-06T03:36:44.000Z,93
2023-05-06T03:40:09.364Z,93
2023-05-06T03:43:34.423Z,93
2023-05-06T03:46:59.669Z,93
2023-05-06T03:50:24.899Z,92
2023-05-06T03:53:50.589Z,92
2023-05-06T03:57:15.400Z,92
2023-05-06T04:00:40.541Z,93
2023-05-06T04:04:05.742Z,92
2023-05-06T04:07:30.951Z,92
2023-05-06T04:10:56.194Z,92
2023-05-06T04:14:21.534Z,92
2023-05-06T04:17:46.697Z,93
2023-05-06T04:21:11.912Z,92
2023-05-06T04:24:37.126Z,93
2023-05-06T04:28:02.342Z,93
2023-05-06T04:31:27.579Z,94
2023-05-06T04:34:52.745Z,94
2023-05-06T04:38:17.925Z,94
2023-05-06T04:41:43.147Z,94
2023-05-06T04:45:08.578Z,94
2023-05-06T04:48:33.682Z,94
2023-05-06T04:51:58.795Z,94
2023-05-06T04:55:24.024Z,94
2023-05-06T04:58:49.228Z,94
2023-05-06T05:02:14.446Z,93
2023-05-06T05:05:39.776Z,93
2023-05-06T05:09:04.894Z,93
2023-05-06T05:12:30.093Z,93
2023-05-06T05:15:55.338Z,93
2023-05-06T05:19:20.567Z,93
2023-05-06T05:22:45.904Z,93
2023-05-06T05:26:10.985Z,93
2023-05-06T05:29:36.184Z,92
2023-05-06T05:33:01.501Z,92
2023-05-06T05:36:26.636Z,92
2023-05-06T05:39:51.946Z,92
2023-05-06T05:43:17.061Z,92
2023-05-06T05:46:42.272Z,91
2023-05-06T05:50:07.454Z,90
2023-05-06T05:53:32.673Z,89
2023-05-06T05:56:58.054Z,89
2023-05-06T06:00:23.191Z,88
2023-05-06T06:03:48.477Z,88
2023-05-06T06:07:13.604Z,88
2023-05-06T06:10:38.859Z,86
2023-05-06T06:14:04.118Z,87
2023-05-06T06:17:29.317Z,87
2023-05-06T06:20:54.542Z,87
2023-05-06T06:24:19.772Z,86
2023-05-06T06:27:45.001Z,85
2023-05-06T06:31:10.377Z,86
2023-05-06T06:34:35.430Z,85
2023-05-06T06:38:00.645Z,85
2023-05-06T06:41:25.877Z,84
2023-05-06T06:44:51.075Z,85
2023-05-06T06:48:16.415Z,86
2023-05-06T06:51:41.518Z,85
2023-05-06T06:55:06.762Z,84
2023-05-06T06:58:31.994Z,84
2023-05-06T07:01:58.204Z,85
2023-05-06T07:05:23.594Z,85
2023-05-06T07:08:48.756Z,84
2023-05-06T07:12:13.972Z,85
2023-05-06T07:15:39.210Z,85
2023-05-06T07:19:04.450Z,86
2023-05-06T07:22:29.710Z,86
2023-05-06T07:25:54.913Z,85
2023-05-06T07:29:20.234Z,85
2023-05-06T07:32:45.514Z,85
2023-05-06T07:36:10.566Z,84
2023-05-06T07:39:35.871Z,83
2023-05-06T07:43:00.963Z,82
2023-05-06T07:46:26.263Z,80
2023-05-06T07:49:51.377Z,82
2023-05-06T07:53:16.595Z,80
2023-05-06T07:56:41.963Z,79
2023-05-06T08:00:07.119Z,79
2023-05-06T08:03:32.468Z,80
2023-05-06T08:06:57.607Z,79
2023-05-06T08:10:22.834Z,79
2023-05-06T08:13:48.058Z,79
2023-05-06T08:17:13.302Z,80
2023-05-06T08:20:38.533Z,79
2023-05-06T08:24:03.725Z,76
2023-05-06T08:27:28.945Z,76
2023-05-06T08:30:54.213Z,78
2023-05-06T08:34:19.460Z,79
2023-05-06T08:37:44.742Z,75
2023-05-06T08:41:10.018Z,76
2023-05-06T08:44:35.239Z,76
2023-05-06T08:48:00.752Z,75
2023-05-06T08:51:26.121Z,75
2023-05-06T08:54:51.065Z,77
2023-05-06T08:58:16.340Z,75
2023-05-06T09:01:41.611Z,73
2023-05-06T09:05:06.810Z,74
2023-05-06T09:08:31.986Z,74
2023-05-06T09:11:57.192Z,70
2023-05-06T09:15:22.381Z,72
2023-05-06T09:18:47.575Z,73
2023-05-06T09:22:12.920Z,71
2023-05-06T09:25:38.075Z,70
2023-05-06T09:29:03.255Z,70
2023-05-06T09:32:28.492Z,68
2023-05-06T09:35:53.648Z,71
2023-05-06T09:39:18.847Z,69
2023-05-06T09:42:44.056Z,71
2023-05-06T09:46:09.366Z,69
2023-05-06T09:49:34.509Z,68
2023-05-06T09:52:59.718Z,67
2023-05-06T09:56:25.058Z,63
2023-05-06T09:59:50.202Z,66
2023-05-06T10:03:15.524Z,63
2023-05-06T10:06:40.675Z,64
2023-05-06T10:10:05.998Z,64
2023-05-06T10:13:31.483Z,64
2023-05-06T10:16:56.656Z,66
2023-05-06T10:20:21.899Z,63
2023-05-06T10:23:47.178Z,63
2023-05-06T10:27:12.446Z,64
2023-05-06T10:30:37.763Z,61
2023-05-06T10:34:02.877Z,61
2023-05-06T10:37:28.137Z,61
2023-05-06T10:40:53.395Z,62
2023-05-06T10:44:18.688Z,63
2023-05-06T10:47:43.953Z,62
2023-05-06T10:51:09.188Z,63
2023-05-06T10:54:34.417Z,61
2023-05-06T10:57:59.761Z,61
2023-05-06T11:01:25.056Z,59
2023-05-06T11:04:50.383Z,61
2023-05-06T11:08:15.549Z,58
2023-05-06T11:11:40.748Z,63
2023-05-06T11:15:05.981Z,61
2023-05-06T11:18:31.182Z,60
2023-05-06T11:21:56.483Z,57
2023-05-06T11:25:21.592Z,60
2023-05-06T11:28:46.809Z,61
2023-05-06T11:32:12.051Z,61
2023-05-06T11:35:37.265Z,59
2023-05-06T11:39:04.720Z,60
2023-05-06T11:42:27.753Z,57
2023-05-06T11:45:53.015Z,56
2023-05-06T11:49:18.206Z,58
2023-05-06T11:52:43.525Z,57
2023-05-06T11:56:08.761Z,56
2023-05-06T11:59:34.494Z,55
2023-05-06T12:02:59.824Z,55
2023-05-06T12:06:25.052Z,58
2023-05-06T12:09:50.340Z,57
2023-05-06T12:13:15.655Z,56
2023-05-06T12:16:40.910Z,56
2023-05-06T12:20:06.061Z,58
2023-05-06T12:23:31.336Z,56
2023-05-06T12:26:56.466Z,57
2023-05-06T12:30:21.742Z,58
2023-05-06T12:33:46.913Z,58
2023-05-06T12:37:12.154Z,57
2023-05-06T12:40:37.357Z,58
2023-05-06T12:44:02.646Z,54
2023-05-06T12:47:28.027Z,55
2023-05-06T12:50:53.241Z,59
2023-05-06T12:54:18.457Z,60
2023-05-06T12:57:43.705Z,57
2023-05-06T13:01:08.988Z,53
2023-05-06T13:04:35.736Z,54
2023-05-06T13:08:00.793Z,53
2023-05-06T13:11:26.048Z,53
2023-05-06T13:14:51.272Z,53
2023-05-06T13:18:16.479Z,53
2023-05-06T13:21:41.789Z,54
2023-05-06T13:25:06.901Z,57
2023-05-06T13:28:32.088Z,57
2023-05-06T13:31:57.322Z,57
2023-05-06T13:35:22.636Z,59
2023-05-06T13:38:47.992Z,55
2023-05-06T13:42:13.044Z,57
2023-05-06T13:45:38.268Z,57
2023-05-06T13:49:03.473Z,55
2023-05-06T13:52:28.681Z,58
2023-05-06T13:55:53.988Z,57
2023-05-06T13:59:19.104Z,59
2023-05-06T14:02:44.592Z,58
2023-05-06T14:06:09.771Z,58
2023-05-06T14:09:34.925Z,57
2023-05-06T14:13:00.239Z,59
2023-05-06T14:16:28.631Z,57
2023-05-06T14:19:53.788Z,58
2023-05-06T14:23:19.077Z,59
2023-05-06T14:26:44.311Z,57
2023-05-06T14:30:09.909Z,58
2023-05-06T14:33:34.827Z,59
2023-05-06T14:37:00.064Z,59
2023-05-06T14:40:25.319Z,59
2023-05-06T14:43:50.546Z,60
2023-05-06T14:47:15.892Z,58
2023-05-06T14:50:41.041Z,58
2023-05-06T14:54:06.277Z,58
2023-05-06T14:57:31.554Z,58
2023-05-06T15:00:56.864Z,59
2023-05-06T15:04:22.100Z,59
2023-05-06T15:07:47.294Z,58
2023-05-06T15:11:12.539Z,59
2023-05-06T15:46:10.111Z,57
2023-05-06T15:49:51.309Z,58
2023-05-06T15:53:00.487Z,57
2023-05-06T15:56:26.987Z,57
2023-05-06T15:59:50.957Z,58
2023-05-06T16:03:16.418Z,58
2023-05-06T16:06:41.452Z,58
2023-05-06T16:10:06.666Z,58
2023-05-06T16:13:31.907Z,57
2023-05-06T16:16:57.135Z,56
2023-05-06T16:20:22.388Z,59
2023-05-06T16:23:47.571Z,57
2023-05-06T16:27:12.810Z,57
2023-05-06T16:30:38.082Z,57
2023-05-06T16:34:03.274Z,58
2023-05-06T16:37:28.611Z,60
2023-05-06T16:40:53.815Z,58
2023-05-06T16:44:19.063Z,58
2023-05-06T16:47:44.394Z,58
2023-05-06T16:51:09.517Z,59
2023-05-06T16:54:34.808Z,58
2023-05-06T16:57:59.929Z,60
2023-05-06T17:01:25.263Z,60
2023-05-06T17:04:50.337Z,62
2023-05-06T17:08:16.052Z,62
2023-05-06T17:11:40.973Z,61
2023-05-06T17:15:06.164Z,63
2023-05-06T17:18:32.890Z,67
2023-05-06T17:21:58.118Z,69
2023-05-06T17:25:23.385Z,70
2023-05-06T17:28:49.187Z,72
2023-05-06T17:32:14.295Z,72
2023-05-06T17:35:39.524Z,73
2023-05-06T17:39:04.875Z,74
2023-05-06T17:42:30.036Z,74
2023-05-06T17:45:55.333Z,74
2023-05-06T17:49:20.712Z,74
2023-05-06T17:52:45.935Z,74
2023-05-06T17:56:11.176Z,75
2023-05-06T17:59:36.480Z,74
2023-05-06T18:03:02.437Z,74
2023-05-06T18:06:27.940Z,75
2023-05-06T18:09:53.250Z,74
2023-05-06T18:13:18.595Z,75
2023-05-06T18:16:43.805Z,75
2023-05-06T18:20:09.668Z,76
2023-05-06T18:23:34.628Z,77
2023-05-06T18:27:00.007Z,77
2023-05-06T18:30:25.368Z,77
2023-05-06T18:33:51.861Z,77
2023-05-06T18:37:17.355Z,78
2023-05-06T18:40:42.601Z,78
2023-05-06T18:44:07.913Z,78
2023-05-06T18:47:33.786Z,79
2023-05-06T18:51:00.404Z,79
2023-05-06T18:54:26.008Z,79
2023-05-06T18:57:51.320Z,79
2023-05-06T19:01:17.043Z,80
2023-05-06T19:04:42.769Z,80
2023-05-06T19:08:09.686Z,80
2023-05-06T19:11:35.878Z,81
2023-05-06T19:15:01.793Z,81
2023-05-06T19:18:27.261Z,82
2023-05-06T19:21:53.191Z,82
2023-05-06T19:25:18.912Z,82
2023-05-06T19:28:44.954Z,82
2023-05-06T19:32:11.647Z,82
2023-05-06T19:35:37.265Z,82
2023-05-06T19:39:02.833Z,82
2023-05-06T19:42:28.519Z,83
2023-05-06T19:45:54.453Z,83
2023-05-06T19:49:20.010Z,83
2023-05-06T19:52:45.821Z,84
2023-05-06T19:56:11.256Z,84
2023-05-06T19:59:36.798Z,84
2023-05-06T20:03:05.213Z,84
2023-05-06T20:06:30.329Z,84
2023-05-06T20:10:16.391Z,84
2023-05-06T20:13:41.444Z,83
2023-05-06T20:17:11.056Z,84
2023-05-06T20:20:36.887Z,84
2023-05-06T20:24:01.785Z,84
2023-05-06T20:27:27.187Z,85
2023-05-06T20:30:52.575Z,85
2023-05-06T20:34:17.752Z,85
2023-05-06T20:37:43.077Z,85
2023-05-06T20:41:08.327Z,85
2023-05-06T20:44:33.534Z,86
2023-05-06T20:47:59.000Z,86
2023-05-06T20:51:24.015Z,87
2023-05-06T20:54:50.219Z,87
2023-05-06T20:58:15.395Z,88
2023-05-06T21:01:40.638Z,88
2023-05-06T21:05:05.870Z,87
2023-05-06T21:08:31.059Z,88
2023-05-06T21:11:56.361Z,88
2023-05-06T21:15:21.501Z,89
2023-05-06T21:18:46.715Z,89
2023-05-06T21:22:11.975Z,89
2023-05-06T21:25:37.177Z,89
2023-05-06T21:29:02.485Z,89
2023-05-06T21:32:27.783Z,90
2023-05-06T21:35:52.997Z,89
2023-05-06T21:39:18.234Z,89
2023-05-06T21:42:43.451Z,89
2023-05-06T21:46:08.833Z,88
2023-05-06T21:49:33.865Z,89
2023-05-06T21:52:59.104Z,89
2023-05-06T21:56:24.345Z,89
2023-05-06T21:59:49.546Z,90
2023-05-06T22:03:14.891Z,90
2023-05-06T22:06:40.004Z,91
2023-05-06T22:10:05.202Z,92
2023-05-06T22:13:30.485Z,92
2023-05-06T22:16:55.649Z,93
2023-05-06T22:20:21.029Z,94
2023-05-06T22:23:46.039Z,94
2023-05-06T22:27:11.255Z,94
2023-05-06T22:30:36.551Z,94
2023-05-06T22:34:01.773Z,94
2023-05-06T22:37:27.092Z,94
2023-05-06T22:40:52.266Z,94
2023-05-06T22:44:17.493Z,94
2023-05-06T22:47:42.820Z,93
2023-05-06T22:51:07.949Z,93
2023-05-06T22:54:33.257Z,93
2023-05-06T22:57:58.379Z,93
2023-05-06T23:01:23.651Z,94
2023-05-06T23:04:48.828Z,94
2023-05-06T23:08:14.037Z,95
2023-05-06T23:11:39.347Z,95
2023-05-06T23:15:04.453Z,94
2023-05-06T23:18:29.703Z,94
2023-05-06T23:21:54.959Z,94
2023-05-06T23:25:20.167Z,94
2023-05-06T23:28:45.457Z,95
2023-05-06T23:32:10.588Z,95
2023-05-06T23:35:35.789Z,94
2023-05-06T23:39:01.033Z,95
2023-05-06T23:42:26.277Z,94
2023-05-06T23:45:51.694Z,94
2023-05-06T23:49:16.703Z,94
2023-05-06T23:52:41.919Z,95
2023-05-06T23:56:07.123Z,95
2023-05-06T23:59:32.331Z,95
